Casselman, Canada
Current Conditions -  °F | °C
As of 4:53 PM on Thursday 23 Oct 2014 (Local Time) from KMSS Reporting Station
Light Rain Light Rain  
Wind Chill: 44°   Ceiling: 1300
Heat Index: 48°   Visibility: 9mi
Dew Point: 45°   Wind: 8mph
Humidity: 89%   Direction: 30°NNE
Pressure: 30"   Gusts: NA
Location:  45.3°N, 75.08°W
Report Text: KMSS 232053Z AUTO 03007KT 9SM -RA BKN013 OVC022 09/07 A3000 RMK AO2 SLP162 P0000 60000 T00890072 56003
Loading
Personal Weather Stations






























Interactive Weather Map
Tropical Storm Tracking
New forecast layout! Learn more

10-Day Weather Forecast

Advertisements
Track Severe Weather on mobile